createdAt,value
2022-08-18T00:01:50.383Z,24.40
2022-08-18T00:04:34.885Z,24.40
2022-08-18T00:07:03.803Z,24.30
2022-08-18T00:09:32.815Z,24.30
2022-08-18T00:12:03.740Z,24.20
2022-08-18T00:14:31.141Z,24.10
2022-08-18T00:17:00.024Z,24.10
2022-08-18T00:19:45.712Z,24.10
2022-08-18T00:22:17.449Z,24.00
2022-08-18T00:24:48.596Z,24.00
2022-08-18T00:27:23.072Z,24.00
2022-08-18T00:29:52.388Z,24.00
2022-08-18T00:32:26.026Z,24.00
2022-08-18T00:34:54.532Z,23.90
2022-08-18T00:37:23.361Z,23.90
2022-08-18T00:39:52.841Z,23.80
2022-08-18T00:42:27.552Z,23.80
2022-08-18T00:44:59.410Z,23.80
2022-08-18T00:47:41.901Z,23.80
2022-08-18T00:50:28.404Z,23.80
2022-08-18T00:53:05.837Z,23.70
2022-08-18T00:55:34.124Z,23.70
2022-08-18T00:58:11.733Z,23.70
2022-08-18T01:00:39.073Z,23.70
2022-08-18T01:03:12.988Z,23.70
2022-08-18T01:05:45.770Z,23.70
2022-08-18T01:08:16.475Z,23.70
2022-08-18T01:10:46.198Z,23.80
2022-08-18T01:13:13.493Z,23.70
2022-08-18T01:15:41.059Z,23.70
2022-08-18T01:18:30.573Z,23.70
2022-08-18T01:21:39.533Z,23.70
2022-08-18T01:24:12.843Z,23.70
2022-08-18T01:26:50.047Z,23.60
2022-08-18T01:29:19.780Z,23.60
2022-08-18T01:31:56.307Z,23.60
2022-08-18T01:34:26.620Z,23.60
2022-08-18T01:36:55.252Z,23.60
2022-08-18T01:41:11.214Z,23.60
2022-08-18T01:42:10.465Z,23.60
2022-08-18T01:44:41.793Z,23.60
2022-08-18T01:47:11.048Z,23.60
2022-08-18T01:49:43.126Z,23.60
2022-08-18T01:52:18.105Z,23.70
2022-08-18T01:54:45.420Z,23.70
2022-08-18T01:57:15.495Z,23.80
2022-08-18T01:59:43.166Z,23.80
2022-08-18T02:02:18.504Z,23.80
2022-08-18T02:04:46.546Z,23.80
2022-08-18T02:07:15.221Z,23.80
2022-08-18T02:09:43.852Z,23.90
2022-08-18T02:12:11.594Z,23.90
2022-08-18T02:14:39.174Z,23.90
2022-08-18T02:17:08.686Z,24.00
2022-08-18T02:19:44.599Z,24.00
2022-08-18T02:22:18.135Z,24.10
2022-08-18T02:24:45.815Z,24.10
2022-08-18T02:27:14.230Z,24.10
2022-08-18T02:29:41.725Z,24.10
2022-08-18T02:32:09.102Z,24.10
2022-08-18T02:34:36.668Z,24.10
2022-08-18T02:37:04.496Z,24.20
2022-08-18T02:39:35.354Z,24.10
2022-08-18T02:42:02.607Z,24.20
2022-08-18T02:44:29.843Z,24.20
2022-08-18T02:46:57.040Z,24.20
2022-08-18T02:49:25.679Z,24.20
2022-08-18T02:51:53.935Z,24.20
2022-08-18T02:54:23.446Z,24.20
2022-08-18T02:56:59.906Z,24.20
2022-08-18T02:59:27.975Z,24.10
2022-08-18T03:01:59.347Z,24.10
2022-08-18T03:04:29.797Z,24.00
2022-08-18T03:07:01.681Z,23.90
2022-08-18T03:09:32.429Z,23.80
2022-08-18T03:12:00.173Z,23.70
2022-08-18T03:14:28.141Z,23.60
2022-08-18T03:16:55.600Z,23.50
2022-08-18T03:19:28.822Z,23.50
2022-08-18T03:22:02.800Z,23.40
2022-08-18T03:24:32.105Z,23.30
2022-08-18T03:27:01.756Z,23.20
2022-08-18T03:29:32.477Z,23.20
2022-08-18T03:32:02.452Z,23.10
2022-08-18T03:34:30.391Z,23.10
2022-08-18T03:36:58.027Z,23.10
2022-08-18T03:39:25.286Z,23.00
2022-08-18T03:41:59.131Z,23.00
2022-08-18T03:44:33.547Z,23.00
2022-08-18T03:47:04.220Z,23.10
2022-08-18T03:49:33.881Z,23.10
2022-08-18T03:52:01.755Z,23.10
2022-08-18T03:54:32.515Z,23.10
2022-08-18T03:57:00.498Z,23.10
2022-08-18T03:59:30.840Z,23.10
2022-08-18T04:01:58.088Z,23.10
2022-08-18T04:04:27.610Z,23.10
2022-08-18T04:07:04.622Z,23.10
2022-08-18T04:09:33.606Z,23.10
2022-08-18T04:12:16.423Z,23.20
2022-08-18T04:14:48.885Z,23.20
2022-08-18T04:17:25.213Z,23.20
2022-08-18T04:19:54.137Z,23.20
2022-08-18T04:22:21.607Z,23.20
2022-08-18T04:24:50.400Z,23.30
2022-08-18T04:27:21.692Z,23.40
2022-08-18T04:29:49.604Z,23.40
2022-08-18T04:32:17.198Z,23.40
2022-08-18T04:34:44.804Z,23.50
2022-08-18T04:37:15.605Z,23.50
2022-08-18T04:39:45.560Z,23.60
2022-08-18T04:42:12.950Z,23.60
2022-08-18T04:44:40.416Z,23.60
2022-08-18T04:47:09.404Z,23.70
2022-08-18T04:49:37.620Z,23.70
2022-08-18T04:52:38.262Z,23.70
2022-08-18T04:55:10.265Z,23.70
2022-08-18T04:57:37.548Z,23.70
2022-08-18T05:00:07.049Z,23.70
2022-08-18T05:02:35.154Z,23.70
2022-08-18T05:05:04.115Z,23.70
2022-08-18T05:07:31.773Z,23.70
2022-08-18T05:09:59.007Z,23.70
2022-08-18T05:12:26.785Z,23.70
2022-08-18T05:14:57.460Z,23.70
2022-08-18T05:17:30.175Z,23.70
2022-08-18T05:20:00.786Z,23.70
2022-08-18T05:22:30.518Z,23.70
2022-08-18T05:24:58.720Z,23.70
2022-08-18T05:27:30.709Z,23.70
2022-08-18T05:29:57.994Z,23.70
2022-08-18T05:32:40.995Z,23.70
2022-08-18T05:35:23.735Z,23.70
2022-08-18T05:38:07.792Z,23.70
2022-08-18T05:40:35.350Z,23.70
2022-08-18T05:43:04.938Z,23.80
2022-08-18T05:45:34.864Z,23.80
2022-08-18T05:48:02.371Z,23.80
2022-08-18T05:50:34.692Z,23.80
2022-08-18T05:53:14.825Z,23.80
2022-08-18T05:56:23.367Z,23.80
2022-08-18T05:58:53.284Z,23.80
2022-08-18T06:01:30.334Z,23.80
2022-08-18T06:04:07.133Z,23.80
2022-08-18T06:06:37.254Z,23.80
2022-08-18T06:09:22.454Z,23.90
2022-08-18T06:11:50.315Z,23.90
2022-08-18T06:14:17.673Z,23.90
2022-08-18T06:17:03.587Z,23.90
2022-08-18T06:19:36.828Z,24.00
2022-08-18T06:22:13.440Z,24.00
2022-08-18T06:24:59.479Z,24.00
2022-08-18T06:27:56.142Z,24.00
2022-08-18T06:30:32.795Z,24.10
2022-08-18T06:33:42.025Z,24.10
2022-08-18T06:36:33.539Z,24.20
2022-08-18T06:39:19.648Z,24.30
2022-08-18T06:41:49.615Z,24.30
2022-08-18T06:44:59.432Z,24.40
2022-08-18T06:47:48.099Z,24.40
2022-08-18T06:50:27.000Z,24.50
2022-08-18T06:53:04.110Z,24.50
2022-08-18T06:55:43.021Z,24.50
2022-08-18T06:58:16.301Z,24.50
2022-08-18T07:01:05.107Z,24.60
2022-08-18T07:03:37.177Z,24.50
2022-08-18T07:06:31.259Z,24.50
2022-08-18T07:09:22.198Z,24.40
2022-08-18T07:12:08.318Z,24.30
2022-08-18T07:14:48.942Z,24.20
2022-08-18T07:17:42.350Z,24.00
2022-08-18T07:20:25.847Z,23.90
2022-08-18T07:23:08.213Z,23.90
2022-08-18T07:25:42.909Z,23.90
2022-08-18T07:28:32.174Z,23.90
2022-08-18T07:31:17.539Z,23.90
2022-08-18T07:33:53.357Z,23.80
2022-08-18T07:36:24.402Z,23.80
2022-08-18T07:39:15.809Z,23.80
2022-08-18T07:41:53.005Z,24.00
2022-08-18T07:44:36.574Z,24.20
2022-08-18T07:47:13.295Z,24.30
2022-08-18T07:49:59.750Z,24.30
2022-08-18T07:52:46.954Z,24.30
2022-08-18T07:55:30.155Z,24.30
2022-08-18T07:58:22.344Z,24.30
2022-08-18T08:01:05.874Z,24.30
2022-08-18T08:04:25.774Z,24.30
2022-08-18T08:07:24.607Z,24.40
2022-08-18T08:10:02.464Z,24.60
2022-08-18T08:12:40.285Z,24.60
2022-08-18T08:15:27.976Z,24.70
2022-08-18T08:18:23.564Z,24.70
2022-08-18T08:21:11.103Z,24.80
2022-08-18T08:24:08.389Z,24.80
2022-08-18T08:27:19.836Z,24.80
2022-08-18T08:29:57.828Z,24.80
2022-08-18T08:32:31.057Z,24.80
2022-08-18T08:35:05.580Z,24.80
2022-08-18T08:37:58.551Z,24.80
2022-08-18T08:40:38.053Z,24.80
2022-08-18T08:43:19.042Z,24.80
2022-08-18T08:46:01.372Z,24.80
2022-08-18T08:48:33.004Z,24.70
2022-08-18T08:51:02.939Z,24.60
2022-08-18T08:53:35.293Z,24.60
2022-08-18T08:56:14.766Z,24.60
2022-08-18T08:58:47.747Z,24.50
2022-08-18T09:01:30.811Z,24.50
2022-08-18T09:04:22.912Z,24.30
2022-08-18T09:07:01.556Z,24.20
2022-08-18T09:09:31.344Z,24.10
2022-08-18T09:12:34.647Z,24.00
2022-08-18T09:15:25.145Z,24.00
2022-08-18T09:18:01.337Z,23.90
2022-08-18T09:20:51.552Z,23.90
2022-08-18T09:23:41.578Z,23.90
2022-08-18T09:26:47.187Z,23.80
2022-08-18T09:29:22.847Z,23.80
2022-08-18T09:32:19.338Z,23.70
2022-08-18T09:35:12.001Z,23.60
2022-08-18T09:38:26.453Z,23.50
2022-08-18T09:41:18.410Z,23.50
2022-08-18T09:44:26.618Z,23.50
2022-08-18T09:46:56.223Z,23.50
2022-08-18T09:49:27.450Z,23.50
2022-08-18T09:51:57.742Z,23.50
2022-08-18T09:54:33.365Z,23.50
2022-08-18T09:57:24.353Z,23.50
2022-08-18T09:59:59.268Z,23.50
2022-08-18T10:02:29.443Z,23.40
2022-08-18T10:05:19.327Z,23.30
2022-08-18T10:08:08.097Z,23.20
2022-08-18T10:11:00.976Z,23.10
2022-08-18T10:14:06.180Z,22.90
2022-08-18T10:19:52.014Z,22.70
2022-08-18T10:22:43.597Z,22.70
2022-08-18T10:28:05.599Z,22.80
2022-08-18T10:30:56.596Z,22.90
2022-08-18T10:33:56.957Z,22.90
2022-08-18T10:36:40.097Z,23.00
2022-08-18T10:39:17.774Z,23.10
2022-08-18T10:42:15.037Z,23.10
2022-08-18T10:44:46.491Z,23.20
2022-08-18T10:47:33.659Z,23.20
2022-08-18T10:50:05.826Z,23.20
2022-08-18T10:53:40.649Z,23.20
2022-08-18T10:56:28.675Z,23.30
2022-08-18T10:59:08.075Z,23.30
2022-08-18T11:01:47.020Z,23.40
2022-08-18T11:04:58.985Z,23.50
2022-08-18T11:07:34.026Z,23.60
2022-08-18T11:13:38.002Z,24.00
2022-08-18T11:16:22.136Z,24.20
2022-08-18T11:19:03.660Z,24.50
2022-08-18T11:21:42.197Z,24.60
2022-08-18T11:24:14.078Z,24.80
2022-08-18T11:26:52.891Z,25.10
2022-08-18T11:29:47.280Z,25.30
2022-08-18T11:32:51.455Z,25.60
2022-08-18T11:35:24.828Z,25.70
2022-08-18T11:37:56.917Z,25.80
2022-08-18T11:41:08.791Z,25.80
2022-08-18T11:43:40.752Z,25.90
2022-08-18T11:46:30.166Z,25.90
2022-08-18T11:49:01.963Z,26.00
2022-08-18T11:51:33.923Z,26.10
2022-08-18T11:54:15.536Z,26.20
2022-08-18T11:56:44.404Z,26.30
2022-08-18T11:59:52.581Z,26.40
2022-08-18T12:02:18.898Z,26.50
2022-08-18T12:04:53.375Z,26.60
2022-08-18T12:07:35.607Z,26.70
2022-08-18T12:10:26.528Z,26.80
2022-08-18T12:13:00.717Z,26.80
2022-08-18T12:15:43.472Z,26.90
2022-08-18T12:18:26.484Z,27.10
2022-08-18T12:20:58.441Z,27.30
2022-08-18T12:23:26.344Z,27.40
2022-08-18T12:25:53.902Z,27.50
2022-08-18T12:28:22.360Z,27.70
2022-08-18T12:30:57.134Z,27.80
2022-08-18T12:33:34.139Z,27.90
2022-08-18T12:36:13.539Z,28.00
2022-08-18T12:38:43.593Z,28.20
2022-08-18T12:41:12.314Z,28.40
2022-08-18T12:43:39.928Z,28.60
2022-08-18T12:46:11.912Z,28.80
2022-08-18T12:48:39.858Z,29.00
2022-08-18T12:51:08.576Z,29.20
2022-08-18T12:53:57.751Z,29.30
2022-08-18T12:56:30.507Z,29.40
2022-08-18T12:59:00.475Z,29.60
2022-08-18T13:01:32.848Z,29.70
2022-08-18T13:04:13.107Z,29.70
2022-08-18T13:07:00.663Z,29.80
2022-08-18T13:09:41.566Z,29.90
2022-08-18T13:12:20.845Z,30.00
2022-08-18T13:14:49.920Z,29.90
2022-08-18T13:17:32.803Z,29.70
2022-08-18T13:20:05.164Z,29.60
2022-08-18T13:22:33.404Z,29.40
2022-08-18T13:25:07.470Z,29.30
2022-08-18T13:27:37.427Z,29.10
2022-08-18T13:30:29.156Z,28.90
2022-08-18T13:32:58.899Z,28.80
2022-08-18T13:35:29.896Z,28.80
2022-08-18T13:38:15.670Z,28.90
2022-08-18T13:40:50.989Z,28.90
2022-08-18T13:43:23.697Z,29.00
2022-08-18T13:45:52.991Z,29.10
2022-08-18T13:48:23.819Z,29.40
2022-08-18T13:50:56.057Z,29.50
2022-08-18T13:53:24.830Z,29.60
2022-08-18T13:55:59.050Z,29.70
2022-08-18T13:58:28.233Z,29.70
2022-08-18T14:01:37.300Z,29.70
2022-08-18T14:03:52.536Z,29.60
2022-08-18T14:06:23.773Z,29.40
2022-08-18T14:08:53.289Z,29.20
2022-08-18T14:11:25.860Z,29.00
2022-08-18T14:13:54.761Z,28.90
2022-08-18T14:16:23.548Z,28.80
2022-08-18T14:19:15.825Z,28.80
2022-08-18T14:22:12.640Z,28.70
2022-08-18T14:25:00.967Z,28.60
2022-08-18T14:27:37.030Z,28.40
2022-08-18T14:30:14.758Z,28.20
2022-08-18T14:32:49.279Z,28.10
2022-08-18T14:36:03.723Z,28.10
2022-08-18T14:38:09.864Z,28.10
2022-08-18T14:40:41.809Z,28.30
2022-08-18T14:43:16.031Z,28.60
2022-08-18T14:45:50.716Z,28.70
2022-08-18T14:48:22.402Z,28.90
2022-08-18T14:50:53.151Z,29.00
2022-08-18T14:53:25.782Z,29.10
2022-08-18T14:55:55.332Z,29.20
2022-08-18T14:58:28.971Z,29.20
2022-08-18T15:00:59.970Z,29.20
2022-08-18T15:03:31.547Z,29.20
2022-08-18T15:06:00.976Z,29.20
2022-08-18T15:08:36.451Z,29.20
2022-08-18T15:11:11.562Z,29.20
2022-08-18T15:13:45.241Z,29.10
2022-08-18T15:16:14.744Z,29.10
2022-08-18T15:18:46.744Z,29.10
2022-08-18T15:21:38.957Z,29.00
2022-08-18T15:24:26.563Z,29.00
2022-08-18T15:27:05.684Z,28.90
2022-08-18T15:29:34.696Z,28.90
2022-08-18T15:32:10.106Z,28.90
2022-08-18T15:34:47.115Z,28.90
2022-08-18T15:37:22.312Z,28.80
2022-08-18T15:40:02.816Z,28.80
2022-08-18T15:42:30.715Z,28.70
2022-08-18T15:45:11.985Z,28.70
2022-08-18T15:47:42.216Z,28.70
2022-08-18T15:50:25.344Z,28.70
2022-08-18T15:52:58.129Z,28.60
2022-08-18T15:55:28.519Z,28.50
2022-08-18T15:57:58.229Z,28.40
2022-08-18T16:00:28.305Z,28.20
2022-08-18T16:03:09.000Z,28.20
2022-08-18T16:05:40.966Z,28.10
2022-08-18T16:08:10.542Z,28.00
2022-08-18T16:10:40.468Z,28.00
2022-08-18T16:13:08.524Z,28.00
2022-08-18T16:15:39.128Z,28.00
2022-08-18T16:18:09.401Z,28.00
2022-08-18T16:20:37.722Z,28.10
2022-08-18T16:23:05.597Z,28.20
2022-08-18T16:25:33.589Z,28.20
2022-08-18T16:28:01.402Z,28.20
2022-08-18T16:30:29.818Z,28.20
2022-08-18T16:33:03.183Z,28.20
2022-08-18T16:35:32.060Z,28.10
2022-08-18T16:38:09.059Z,28.00
2022-08-18T16:40:37.811Z,27.90
2022-08-18T16:43:08.382Z,27.80
2022-08-18T16:45:37.847Z,27.70
2022-08-18T16:48:08.276Z,27.60
2022-08-18T16:50:37.814Z,27.60
2022-08-18T16:53:07.246Z,27.50
2022-08-18T16:55:35.327Z,27.40
2022-08-18T16:58:23.129Z,27.30
2022-08-18T17:01:11.563Z,27.20
2022-08-18T17:04:04.259Z,27.10
2022-08-18T17:06:47.202Z,27.00
2022-08-18T17:09:16.746Z,27.00
2022-08-18T17:11:47.922Z,26.80
2022-08-18T17:14:20.685Z,26.70
2022-08-18T17:16:51.660Z,26.60
2022-08-18T17:19:19.085Z,26.50
2022-08-18T17:21:46.714Z,26.40
2022-08-18T17:24:14.903Z,26.20
2022-08-18T17:26:53.969Z,26.20
2022-08-18T17:29:23.239Z,26.10
2022-08-18T17:32:20.413Z,26.00
2022-08-18T17:34:54.503Z,25.90
2022-08-18T17:37:24.008Z,25.90
2022-08-18T17:39:56.393Z,25.80
2022-08-18T17:42:26.246Z,25.80
2022-08-18T17:45:22.190Z,25.70
2022-08-18T17:47:53.947Z,25.70
2022-08-18T17:51:07.899Z,25.70
2022-08-18T17:53:39.087Z,25.60
2022-08-18T17:56:18.095Z,25.60
2022-08-18T17:59:00.837Z,25.60
2022-08-18T18:01:28.995Z,25.60
2022-08-18T18:03:59.845Z,25.60
2022-08-18T18:06:46.253Z,25.50
2022-08-18T18:09:21.763Z,25.50
2022-08-18T18:11:49.165Z,25.40
2022-08-18T18:14:39.882Z,25.40
2022-08-18T18:17:15.477Z,25.30
2022-08-18T18:19:45.389Z,25.30
2022-08-18T18:22:24.514Z,25.30
2022-08-18T18:25:00.998Z,25.30
2022-08-18T18:27:40.988Z,25.30
2022-08-18T18:30:23.912Z,25.30
2022-08-18T18:33:05.575Z,25.30
2022-08-18T18:35:57.076Z,25.30
2022-08-18T18:38:31.562Z,25.20
2022-08-18T18:41:04.972Z,25.20
2022-08-18T18:43:39.513Z,25.20
2022-08-18T18:46:33.694Z,25.20
2022-08-18T18:49:18.310Z,25.20
2022-08-18T18:52:19.631Z,25.20
2022-08-18T18:55:02.837Z,25.20
2022-08-18T18:57:50.340Z,25.10
2022-08-18T19:00:44.126Z,25.10
2022-08-18T19:03:46.727Z,25.10
2022-08-18T19:06:19.523Z,25.00
2022-08-18T19:09:15.583Z,25.00
2022-08-18T19:12:19.954Z,25.00
2022-08-18T19:14:59.566Z,25.00
2022-08-18T19:17:43.436Z,25.00
2022-08-18T19:20:18.594Z,24.90
2022-08-18T19:22:52.001Z,24.90
2022-08-18T19:25:41.649Z,24.90
2022-08-18T19:28:33.402Z,24.90
2022-08-18T19:31:14.093Z,24.80
2022-08-18T19:33:50.041Z,24.80
2022-08-18T19:36:32.265Z,24.80
2022-08-18T19:39:17.691Z,24.80
2022-08-18T19:42:11.939Z,24.80
2022-08-18T19:44:47.383Z,24.80
2022-08-18T19:47:52.622Z,24.80
2022-08-18T19:50:26.189Z,24.70
2022-08-18T19:53:24.300Z,24.70
2022-08-18T19:55:54.399Z,24.60
2022-08-18T19:58:24.297Z,24.60
2022-08-18T20:00:57.616Z,24.60
2022-08-18T20:04:00.709Z,24.60
2022-08-18T20:06:36.036Z,24.50
2022-08-18T20:09:26.940Z,24.50
2022-08-18T20:12:22.022Z,24.50
2022-08-18T20:15:02.182Z,24.50
2022-08-18T20:17:30.877Z,24.50
2022-08-18T20:19:59.621Z,24.50
2022-08-18T20:22:36.444Z,24.50
2022-08-18T20:25:30.558Z,24.50
2022-08-18T20:28:04.217Z,24.40
2022-08-18T20:30:33.480Z,24.30
2022-08-18T20:33:25.745Z,24.30
2022-08-18T20:36:25.428Z,24.20
2022-08-18T20:38:56.713Z,24.10
2022-08-18T20:41:23.919Z,24.10
2022-08-18T20:44:09.423Z,24.10
2022-08-18T20:46:51.556Z,24.00
2022-08-18T20:49:36.634Z,24.00
2022-08-18T20:52:37.308Z,24.10
2022-08-18T20:55:11.720Z,24.10
2022-08-18T20:57:40.453Z,24.10
2022-08-18T21:00:13.473Z,24.10
2022-08-18T21:02:47.147Z,24.10
2022-08-18T21:05:27.786Z,24.10
2022-08-18T21:08:16.427Z,24.10
2022-08-18T21:10:58.892Z,24.10
2022-08-18T21:13:29.008Z,24.10
2022-08-18T21:15:58.741Z,24.00
2022-08-18T21:18:27.213Z,23.90
2022-08-18T21:20:58.153Z,23.80
2022-08-18T21:23:33.771Z,23.80
2022-08-18T21:26:15.135Z,23.70
2022-08-18T21:28:49.580Z,23.70
2022-08-18T21:31:41.677Z,23.60
2022-08-18T21:34:18.581Z,23.60
2022-08-18T21:36:54.832Z,23.50
2022-08-18T21:39:22.600Z,23.50
2022-08-18T21:41:52.827Z,23.50
2022-08-18T21:44:29.227Z,23.50
2022-08-18T21:47:17.837Z,23.50
2022-08-18T21:50:10.182Z,23.50
2022-08-18T21:52:55.711Z,23.40
2022-08-18T21:55:33.482Z,23.30
2022-08-18T21:58:03.298Z,23.30
2022-08-18T22:00:35.037Z,23.20
2022-08-18T22:03:20.608Z,23.20
2022-08-18T22:05:59.606Z,23.20
2022-08-18T22:08:33.624Z,23.20
2022-08-18T22:12:01.959Z,23.20
2022-08-18T22:14:53.913Z,23.20
2022-08-18T22:17:43.482Z,23.20
2022-08-18T22:20:38.748Z,23.20
2022-08-18T22:23:33.380Z,23.20
2022-08-18T22:26:18.392Z,23.20
2022-08-18T22:29:00.260Z,23.20
2022-08-18T22:31:31.272Z,23.20
2022-08-18T22:34:05.522Z,23.20
2022-08-18T22:36:41.999Z,23.20
2022-08-18T22:39:12.611Z,23.20
2022-08-18T22:41:41.811Z,23.30
2022-08-18T22:44:10.062Z,23.30
2022-08-18T22:46:37.456Z,23.30
2022-08-18T22:49:04.966Z,23.30
2022-08-18T22:51:33.436Z,23.30
2022-08-18T22:54:00.644Z,23.30
2022-08-18T22:56:34.363Z,23.30
2022-08-18T22:59:15.848Z,23.30
2022-08-18T23:01:47.003Z,23.20
2022-08-18T23:04:16.176Z,23.20
2022-08-18T23:06:51.757Z,23.20
2022-08-18T23:09:24.856Z,23.20
2022-08-18T23:11:54.247Z,23.10
2022-08-18T23:14:22.429Z,23.10
2022-08-18T23:16:49.974Z,23.00
2022-08-18T23:19:19.837Z,23.00
2022-08-18T23:21:48.673Z,23.00
2022-08-18T23:24:17.481Z,23.00
2022-08-18T23:26:45.783Z,23.00
2022-08-18T23:29:14.599Z,23.00
2022-08-18T23:31:43.557Z,23.00
2022-08-18T23:34:13.309Z,23.00
2022-08-18T23:36:45.313Z,23.00
2022-08-18T23:39:15.310Z,23.00
2022-08-18T23:41:43.541Z,22.90
2022-08-18T23:44:14.999Z,22.70
2022-08-18T23:46:44.068Z,22.60
2022-08-18T23:49:14.959Z,22.50
2022-08-18T23:51:51.116Z,22.40
2022-08-18T23:54:30.827Z,22.30
2022-08-18T23:56:58.358Z,22.30
2022-08-18T23:59:27.271Z,22.30
